sensor_id;sensor_type;location;lat;lon;timestamp;pressure;altitude;pressure_sealevel;temperature;humidity
6032;BME280;3044;43.232;27.972;2023-04-25T00:01:40;43887.72;;;-143.84;92.65
6032;BME280;3044;43.232;27.972;2023-04-25T00:04:08;43872.50;;;-143.84;92.40
6032;BME280;3044;43.232;27.972;2023-04-25T00:06:36;43882.00;;;-143.84;92.73
6032;BME280;3044;43.232;27.972;2023-04-25T00:09:03;43906.75;;;-143.84;93.02
6032;BME280;3044;43.232;27.972;2023-04-25T00:11:33;43876.31;;;-143.84;92.67
6032;BME280;3044;43.232;27.972;2023-04-25T00:14:00;43895.34;;;-143.84;93.08
6032;BME280;3044;43.232;27.972;2023-04-25T00:16:28;43904.84;;;-143.84;92.69
6032;BME280;3044;43.232;27.972;2023-04-25T00:18:58;43866.78;;;-143.84;92.58
6032;BME280;3044;43.232;27.972;2023-04-25T00:21:27;43864.88;;;-143.84;92.05
6032;BME280;3044;43.232;27.972;2023-04-25T00:23:55;43872.50;;;-143.84;92.06
6032;BME280;3044;43.232;27.972;2023-04-25T00:26:22;43859.19;;;-143.84;91.25
6032;BME280;3044;43.232;27.972;2023-04-25T00:28:50;43853.47;;;-143.84;91.07
6032;BME280;3044;43.232;27.972;2023-04-25T00:31:17;43864.88;;;-143.84;91.18
6032;BME280;3044;43.232;27.972;2023-04-25T00:33:44;43821.09;;;-143.84;90.92
6032;BME280;3044;43.232;27.972;2023-04-25T00:36:12;43830.63;;;-143.84;91.14
6032;BME280;3044;43.232;27.972;2023-04-25T00:38:39;43824.91;;;-143.84;90.87
6032;BME280;3044;43.232;27.972;2023-04-25T00:41:07;43828.72;;;-143.84;90.92
6032;BME280;3044;43.232;27.972;2023-04-25T00:43:36;43857.28;;;-143.84;90.87
6032;BME280;3044;43.232;27.972;2023-04-25T00:46:03;43849.66;;;-143.84;91.24
6032;BME280;3044;43.232;27.972;2023-04-25T00:48:30;43866.78;;;-143.84;91.10
6032;BME280;3044;43.232;27.972;2023-04-25T00:50:58;43809.69;;;-143.84;90.86
6032;BME280;3044;43.232;27.972;2023-04-25T00:53:27;43845.84;;;-143.84;91.29
6032;BME280;3044;43.232;27.972;2023-04-25T00:55:55;43843.94;;;-143.84;91.35
6032;BME280;3044;43.232;27.972;2023-04-25T00:58:23;43809.69;;;-143.84;90.83
6032;BME280;3044;43.232;27.972;2023-04-25T01:00:51;43836.34;;;-143.84;91.03
6032;BME280;3044;43.232;27.972;2023-04-25T01:03:19;43815.41;;;-143.84;90.53
6032;BME280;3044;43.232;27.972;2023-04-25T01:05:46;43803.97;;;-143.84;90.52
6032;BME280;3044;43.232;27.972;2023-04-25T01:08:14;43811.59;;;-143.84;90.65
6032;BME280;3044;43.232;27.972;2023-04-25T01:10:41;43830.63;;;-143.84;90.96
6032;BME280;3044;43.232;27.972;2023-04-25T01:13:08;43838.25;;;-143.84;90.75
6032;BME280;3044;43.232;27.972;2023-04-25T01:15:37;43838.25;;;-143.84;90.90
6032;BME280;3044;43.232;27.972;2023-04-25T01:18:05;43824.91;;;-143.84;91.11
6032;BME280;3044;43.232;27.972;2023-04-25T01:20:33;43828.72;;;-143.84;91.46
6032;BME280;3044;43.232;27.972;2023-04-25T01:23:02;43845.84;;;-143.84;91.40
6032;BME280;3044;43.232;27.972;2023-04-25T01:25:30;43845.84;;;-143.84;91.29
6032;BME280;3044;43.232;27.972;2023-04-25T01:27:58;43851.56;;;-143.84;91.67
6032;BME280;3044;43.232;27.972;2023-04-25T01:30:26;43859.19;;;-143.84;91.48
6032;BME280;3044;43.232;27.972;2023-04-25T01:32:55;43864.88;;;-143.84;91.74
6032;BME280;3044;43.232;27.972;2023-04-25T01:35:22;43855.38;;;-143.84;91.83
6032;BME280;3044;43.232;27.972;2023-04-25T01:37:51;43862.97;;;-143.84;91.90
6032;BME280;3044;43.232;27.972;2023-04-25T01:40:21;43878.22;;;-143.84;92.35
6032;BME280;3044;43.232;27.972;2023-04-25T01:42:48;43876.31;;;-143.84;92.26
6032;BME280;3044;43.232;27.972;2023-04-25T01:45:16;43893.44;;;-143.84;92.89
6032;BME280;3044;43.232;27.972;2023-04-25T01:47:44;43880.13;;;-143.84;92.67
6032;BME280;3044;43.232;27.972;2023-04-25T01:50:15;43885.81;;;-143.84;92.49
6032;BME280;3044;43.232;27.972;2023-04-25T01:52:42;43880.13;;;-143.84;92.43
6032;BME280;3044;43.232;27.972;2023-04-25T01:55:10;43883.91;;;-143.84;92.34
6032;BME280;3044;43.232;27.972;2023-04-25T01:57:38;43874.41;;;-143.84;92.31
6032;BME280;3044;43.232;27.972;2023-04-25T02:00:06;43895.34;;;-143.84;92.81
6032;BME280;3044;43.232;27.972;2023-04-25T02:02:34;43870.59;;;-143.84;92.49
6032;BME280;3044;43.232;27.972;2023-04-25T02:05:02;43861.06;;;-143.84;92.04
6032;BME280;3044;43.232;27.972;2023-04-25T02:07:29;43855.38;;;-143.84;91.91
6032;BME280;3044;43.232;27.972;2023-04-25T02:09:56;43862.97;;;-143.84;91.89
6032;BME280;3044;43.232;27.972;2023-04-25T02:12:23;43872.50;;;-143.84;92.09
6032;BME280;3044;43.232;27.972;2023-04-25T02:14:53;43868.69;;;-143.84;92.12
6032;BME280;3044;43.232;27.972;2023-04-25T02:17:20;43876.31;;;-143.84;92.04
6032;BME280;3044;43.232;27.972;2023-04-25T02:19:48;43891.53;;;-143.84;92.14
6032;BME280;3044;43.232;27.972;2023-04-25T02:22:15;43862.97;;;-143.84;92.08
6032;BME280;3044;43.232;27.972;2023-04-25T02:24:42;43891.53;;;-143.84;92.53
6032;BME280;3044;43.232;27.972;2023-04-25T02:27:09;43883.91;;;-143.84;92.49
6032;BME280;3044;43.232;27.972;2023-04-25T02:29:37;43889.63;;;-143.84;92.24
6032;BME280;3044;43.232;27.972;2023-04-25T02:32:05;43910.56;;;-143.84;92.40
6032;BME280;3044;43.232;27.972;2023-04-25T02:34:32;43893.44;;;-143.84;92.93
6032;BME280;3044;43.232;27.972;2023-04-25T02:36:59;43878.22;;;-143.84;92.62
6032;BME280;3044;43.232;27.972;2023-04-25T02:39:27;43876.31;;;-143.84;93.00
6032;BME280;3044;43.232;27.972;2023-04-25T02:41:54;43876.31;;;-143.84;93.03
6032;BME280;3044;43.232;27.972;2023-04-25T02:44:21;43902.97;;;-143.84;93.02
6032;BME280;3044;43.232;27.972;2023-04-25T02:46:48;43908.66;;;-143.84;93.51
6032;BME280;3044;43.232;27.972;2023-04-25T02:49:17;43944.84;;;-143.84;93.87
6032;BME280;3044;43.232;27.972;2023-04-25T02:51:44;43941.03;;;-143.84;93.94
6032;BME280;3044;43.232;27.972;2023-04-25T02:54:11;43929.59;;;-143.84;93.89
6032;BME280;3044;43.232;27.972;2023-04-25T02:56:38;43933.41;;;-143.84;93.66
6032;BME280;3044;43.232;27.972;2023-04-25T02:59:06;43954.34;;;-143.84;93.51
6032;BME280;3044;43.232;27.972;2023-04-25T03:01:33;43929.59;;;-143.84;93.65
6032;BME280;3044;43.232;27.972;2023-04-25T03:04:00;43906.75;;;-143.84;93.29
6032;BME280;3044;43.232;27.972;2023-04-25T03:06:28;43922.00;;;-143.84;93.10
6032;BME280;3044;43.232;27.972;2023-04-25T03:08:56;43908.66;;;-143.84;93.05
6032;BME280;3044;43.232;27.972;2023-04-25T03:11:25;43906.75;;;-143.84;93.38
6032;BME280;3044;43.232;27.972;2023-04-25T03:13:52;43912.47;;;-143.84;93.72
6032;BME280;3044;43.232;27.972;2023-04-25T03:16:19;43929.59;;;-143.84;93.63
6032;BME280;3044;43.232;27.972;2023-04-25T03:18:47;43935.31;;;-143.84;93.79
6032;BME280;3044;43.232;27.972;2023-04-25T03:21:15;43958.16;;;-143.84;94.14
6032;BME280;3044;43.232;27.972;2023-04-25T03:23:44;43922.00;;;-143.84;93.62
6032;BME280;3044;43.232;27.972;2023-04-25T03:26:11;43941.03;;;-143.84;93.93
6032;BME280;3044;43.232;27.972;2023-04-25T03:28:38;43925.78;;;-143.84;93.39
6032;BME280;3044;43.232;27.972;2023-04-25T03:31:06;43899.16;;;-143.84;93.42
6032;BME280;3044;43.232;27.972;2023-04-25T03:33:33;43918.19;;;-143.84;93.45
6032;BME280;3044;43.232;27.972;2023-04-25T03:36:00;43914.38;;;-143.84;93.12
6032;BME280;3044;43.232;27.972;2023-04-25T03:38:27;43918.19;;;-143.84;93.13
6032;BME280;3044;43.232;27.972;2023-04-25T03:40:56;43912.47;;;-143.84;92.71
6032;BME280;3044;43.232;27.972;2023-04-25T03:43:23;43897.25;;;-143.84;92.59
6032;BME280;3044;43.232;27.972;2023-04-25T03:45:50;43904.84;;;-143.84;93.08
6032;BME280;3044;43.232;27.972;2023-04-25T03:48:17;43910.56;;;-143.84;92.73
6032;BME280;3044;43.232;27.972;2023-04-25T03:50:46;43904.84;;;-143.84;93.02
6032;BME280;3044;43.232;27.972;2023-04-25T03:53:14;43914.38;;;-143.84;92.81
6032;BME280;3044;43.232;27.972;2023-04-25T03:55:41;43906.75;;;-143.84;92.86
6032;BME280;3044;43.232;27.972;2023-04-25T03:58:09;43893.44;;;-143.84;92.68
6032;BME280;3044;43.232;27.972;2023-04-25T04:00:36;43895.34;;;-143.84;92.52
6032;BME280;3044;43.232;27.972;2023-04-25T04:03:03;43891.53;;;-143.84;92.32
6032;BME280;3044;43.232;27.972;2023-04-25T04:05:31;43883.91;;;-143.84;92.27
6032;BME280;3044;43.232;27.972;2023-04-25T04:07:58;43897.25;;;-143.84;92.40
6032;BME280;3044;43.232;27.972;2023-04-25T04:10:25;43880.13;;;-143.84;92.32
6032;BME280;3044;43.232;27.972;2023-04-25T04:12:52;43882.00;;;-143.84;92.04
6032;BME280;3044;43.232;27.972;2023-04-25T04:15:21;43887.72;;;-143.84;92.23
6032;BME280;3044;43.232;27.972;2023-04-25T04:17:49;43897.25;;;-143.84;92.16
6032;BME280;3044;43.232;27.972;2023-04-25T04:20:16;43895.34;;;-143.84;92.49
6032;BME280;3044;43.232;27.972;2023-04-25T04:22:43;43902.97;;;-143.84;92.97
6032;BME280;3044;43.232;27.972;2023-04-25T04:25:10;43906.75;;;-143.84;92.80
6032;BME280;3044;43.232;27.972;2023-04-25T04:27:38;43901.06;;;-143.84;92.41
6032;BME280;3044;43.232;27.972;2023-04-25T04:30:07;43927.69;;;-143.84;93.51
6032;BME280;3044;43.232;27.972;2023-04-25T04:32:35;43929.59;;;-143.84;92.91
6032;BME280;3044;43.232;27.972;2023-04-25T04:35:03;43912.47;;;-143.84;92.59
6032;BME280;3044;43.232;27.972;2023-04-25T04:37:32;43883.91;;;-143.84;91.31
6032;BME280;3044;43.232;27.972;2023-04-25T04:39:59;43788.75;;;-143.84;89.00
6032;BME280;3044;43.232;27.972;2023-04-25T04:42:30;43859.19;;;-143.84;87.70
6032;BME280;3044;43.232;27.972;2023-04-25T04:44:58;43914.38;;;-143.84;87.35
6032;BME280;3044;43.232;27.972;2023-04-25T04:47:27;43931.50;;;-143.84;87.42
6032;BME280;3044;43.232;27.972;2023-04-25T04:49:59;44215.16;;;-143.84;85.84
6032;BME280;3044;43.232;27.972;2023-04-25T04:52:26;44489.28;;;-143.84;84.94
6032;BME280;3044;43.232;27.972;2023-04-25T04:54:53;44660.63;;;-143.84;84.12
6032;BME280;3044;43.232;27.972;2023-04-25T04:57:21;44603.53;;;-143.84;84.28
6032;BME280;3044;43.232;27.972;2023-04-25T04:59:48;44849.13;;;-143.84;82.68
6032;BME280;3044;43.232;27.972;2023-04-25T05:02:16;44948.16;;;-143.84;81.06
6032;BME280;3044;43.232;27.972;2023-04-25T05:04:43;45047.16;;;-143.84;78.62
6032;BME280;3044;43.232;27.972;2023-04-25T05:07:12;45047.16;;;-143.84;78.02
6032;BME280;3044;43.232;27.972;2023-04-25T05:09:39;45075.72;;;-143.84;75.57
6032;BME280;3044;43.232;27.972;2023-04-25T05:12:06;45070.00;;;-143.84;74.45
6032;BME280;3044;43.232;27.972;2023-04-25T05:14:33;45115.72;;;-143.84;72.60
6032;BME280;3044;43.232;27.972;2023-04-25T05:17:01;45077.63;;;-143.84;73.90
6032;BME280;3044;43.232;27.972;2023-04-25T05:19:30;45089.06;;;-143.84;72.76
6032;BME280;3044;43.232;27.972;2023-04-25T05:21:57;45119.53;;;-143.84;69.07
6032;BME280;3044;43.232;27.972;2023-04-25T05:24:25;45111.91;;;-143.84;69.00
6032;BME280;3044;43.232;27.972;2023-04-25T05:26:52;45077.63;;;-143.84;70.77
6032;BME280;3044;43.232;27.972;2023-04-25T05:29:20;45106.19;;;-143.84;67.64
6032;BME280;3044;43.232;27.972;2023-04-25T05:31:47;45119.53;;;-143.84;67.71
6032;BME280;3044;43.232;27.972;2023-04-25T05:34:14;45094.78;;;-143.84;67.41
6032;BME280;3044;43.232;27.972;2023-04-25T05:36:42;45106.19;;;-143.84;67.49
6032;BME280;3044;43.232;27.972;2023-04-25T05:39:09;45111.91;;;-143.84;66.47
6032;BME280;3044;43.232;27.972;2023-04-25T05:41:38;45106.19;;;-143.84;65.92
6032;BME280;3044;43.232;27.972;2023-04-25T05:44:05;45090.97;;;-143.84;66.54
6032;BME280;3044;43.232;27.972;2023-04-25T05:46:32;45117.63;;;-143.84;66.24
6032;BME280;3044;43.232;27.972;2023-04-25T05:48:59;45102.38;;;-143.84;64.19
6032;BME280;3044;43.232;27.972;2023-04-25T05:51:26;45087.16;;;-143.84;61.15
6032;BME280;3044;43.232;27.972;2023-04-25T05:53:53;45106.19;;;-143.84;59.34
6032;BME280;3044;43.232;27.972;2023-04-25T05:56:20;45110.00;;;-143.84;60.15
6032;BME280;3044;43.232;27.972;2023-04-25T05:58:49;45102.38;;;-143.84;59.06
6032;BME280;3044;43.232;27.972;2023-04-25T06:01:16;45102.38;;;-143.84;58.39
6032;BME280;3044;43.232;27.972;2023-04-25T06:03:43;45100.47;;;-143.84;60.64
6032;BME280;3044;43.232;27.972;2023-04-25T06:06:11;45111.91;;;-143.84;59.48
6032;BME280;3044;43.232;27.972;2023-04-25T06:08:38;45077.63;;;-143.84;59.26
6032;BME280;3044;43.232;27.972;2023-04-25T06:11:05;45098.56;;;-143.84;58.60
6032;BME280;3044;43.232;27.972;2023-04-25T06:13:33;45106.19;;;-143.84;59.23
6032;BME280;3044;43.232;27.972;2023-04-25T06:16:01;45090.97;;;-143.84;59.16
6032;BME280;3044;43.232;27.972;2023-04-25T06:18:28;45113.81;;;-143.84;58.81
6032;BME280;3044;43.232;27.972;2023-04-25T06:20:55;45087.16;;;-143.84;60.37
6032;BME280;3044;43.232;27.972;2023-04-25T06:23:23;45108.09;;;-143.84;60.69
6032;BME280;3044;43.232;27.972;2023-04-25T06:25:50;45129.03;;;-143.84;60.76
6032;BME280;3044;43.232;27.972;2023-04-25T06:28:17;45127.13;;;-143.84;61.66
6032;BME280;3044;43.232;27.972;2023-04-25T06:30:44;45119.53;;;-143.84;61.79
6032;BME280;3044;43.232;27.972;2023-04-25T06:33:13;45129.03;;;-143.84;62.43
6032;BME280;3044;43.232;27.972;2023-04-25T06:35:40;45110.00;;;-143.84;62.79
6032;BME280;3044;43.232;27.972;2023-04-25T06:38:07;45110.00;;;-143.84;62.78
6032;BME280;3044;43.232;27.972;2023-04-25T06:40:34;45110.00;;;-143.84;63.55
6032;BME280;3044;43.232;27.972;2023-04-25T06:43:01;45121.44;;;-143.84;60.13
6032;BME280;3044;43.232;27.972;2023-04-25T06:45:28;45115.72;;;-143.84;62.25
6032;BME280;3044;43.232;27.972;2023-04-25T06:47:56;45113.81;;;-143.84;62.63
6032;BME280;3044;43.232;27.972;2023-04-25T06:50:24;45102.38;;;-143.84;61.17
6032;BME280;3044;43.232;27.972;2023-04-25T06:52:51;45100.47;;;-143.84;60.98
6032;BME280;3044;43.232;27.972;2023-04-25T06:55:18;45123.34;;;-143.84;61.06
6032;BME280;3044;43.232;27.972;2023-04-25T06:57:46;45115.72;;;-143.84;61.65
6032;BME280;3044;43.232;27.972;2023-04-25T07:00:14;45106.19;;;-143.84;63.31
6032;BME280;3044;43.232;27.972;2023-04-25T07:02:41;45090.97;;;-143.84;63.25
6032;BME280;3044;43.232;27.972;2023-04-25T07:05:09;45104.28;;;-143.84;62.97
6032;BME280;3044;43.232;27.972;2023-04-25T07:07:37;45113.81;;;-143.84;58.48
6032;BME280;3044;43.232;27.972;2023-04-25T07:10:05;45110.00;;;-143.84;59.95
6032;BME280;3044;43.232;27.972;2023-04-25T07:12:32;45081.44;;;-143.84;60.89
6032;BME280;3044;43.232;27.972;2023-04-25T07:14:59;45104.28;;;-143.84;59.71
6032;BME280;3044;43.232;27.972;2023-04-25T07:17:32;45108.09;;;-143.84;57.63
6032;BME280;3044;43.232;27.972;2023-04-25T07:19:59;45102.38;;;-143.84;56.48
6032;BME280;3044;43.232;27.972;2023-04-25T07:22:26;45090.97;;;-143.84;55.92
6032;BME280;3044;43.232;27.972;2023-04-25T07:24:55;45090.97;;;-143.84;55.31
6032;BME280;3044;43.232;27.972;2023-04-25T07:27:22;45090.97;;;-143.84;54.83
6032;BME280;3044;43.232;27.972;2023-04-25T07:29:49;45102.38;;;-143.84;50.59
6032;BME280;3044;43.232;27.972;2023-04-25T07:32:16;45094.78;;;-143.84;48.28
6032;BME280;3044;43.232;27.972;2023-04-25T07:34:43;45096.66;;;-143.84;48.08
6032;BME280;3044;43.232;27.972;2023-04-25T07:37:10;45087.16;;;-143.84;46.39
6032;BME280;3044;43.232;27.972;2023-04-25T07:39:38;45073.81;;;-143.84;46.21
6032;BME280;3044;43.232;27.972;2023-04-25T07:42:06;45071.91;;;-143.84;45.03
6032;BME280;3044;43.232;27.972;2023-04-25T07:44:34;45087.16;;;-143.84;45.56
6032;BME280;3044;43.232;27.972;2023-04-25T07:47:04;45085.25;;;-143.84;45.74
6032;BME280;3044;43.232;27.972;2023-04-25T07:49:32;45085.25;;;-143.84;43.02
6032;BME280;3044;43.232;27.972;2023-04-25T07:52:01;45060.50;;;-143.84;42.36
6032;BME280;3044;43.232;27.972;2023-04-25T07:54:28;45079.53;;;-143.84;43.07
6032;BME280;3044;43.232;27.972;2023-04-25T07:56:55;45064.31;;;-143.84;43.44
6032;BME280;3044;43.232;27.972;2023-04-25T07:59:24;45056.69;;;-143.84;43.05
6032;BME280;3044;43.232;27.972;2023-04-25T08:01:51;45064.31;;;-143.84;42.70
6032;BME280;3044;43.232;27.972;2023-04-25T08:04:18;45035.75;;;-143.84;42.35
6032;BME280;3044;43.232;27.972;2023-04-25T08:06:45;45054.78;;;-143.84;43.59
6032;BME280;3044;43.232;27.972;2023-04-25T08:09:14;45085.25;;;-143.84;45.71
6032;BME280;3044;43.232;27.972;2023-04-25T08:11:41;45094.78;;;-143.84;46.11
6032;BME280;3044;43.232;27.972;2023-04-25T08:14:08;45106.19;;;-143.84;46.26
6032;BME280;3044;43.232;27.972;2023-04-25T08:16:37;45083.34;;;-143.84;47.90
6032;BME280;3044;43.232;27.972;2023-04-25T08:19:04;45100.47;;;-143.84;47.23
6032;BME280;3044;43.232;27.972;2023-04-25T08:21:32;45092.88;;;-143.84;48.25
6032;BME280;3044;43.232;27.972;2023-04-25T08:23:59;45092.88;;;-143.84;50.45
6032;BME280;3044;43.232;27.972;2023-04-25T08:26:28;45096.66;;;-143.84;53.22
6032;BME280;3044;43.232;27.972;2023-04-25T08:28:55;45092.88;;;-143.84;56.15
6032;BME280;3044;43.232;27.972;2023-04-25T08:31:22;45117.63;;;-143.84;59.53
6032;BME280;3044;43.232;27.972;2023-04-25T08:33:51;45094.78;;;-143.84;60.82
6032;BME280;3044;43.232;27.972;2023-04-25T08:36:18;45071.91;;;-143.84;59.52
6032;BME280;3044;43.232;27.972;2023-04-25T08:38:45;45090.97;;;-143.84;55.57
6032;BME280;3044;43.232;27.972;2023-04-25T08:41:13;45136.66;;;-143.84;52.00
6032;BME280;3044;43.232;27.972;2023-04-25T08:43:42;45108.09;;;-143.84;49.77
6032;BME280;3044;43.232;27.972;2023-04-25T08:46:11;45104.28;;;-143.84;52.13
6032;BME280;3044;43.232;27.972;2023-04-25T08:48:40;45148.09;;;-143.84;52.40
6032;BME280;3044;43.232;27.972;2023-04-25T08:51:10;45110.00;;;-143.84;51.87
6032;BME280;3044;43.232;27.972;2023-04-25T08:53:42;45104.28;;;-143.84;56.71
6032;BME280;3044;43.232;27.972;2023-04-25T08:56:12;45113.81;;;-143.84;58.82
6032;BME280;3044;43.232;27.972;2023-04-25T08:58:43;45121.44;;;-143.84;58.10
6032;BME280;3044;43.232;27.972;2023-04-25T09:01:11;45110.00;;;-143.84;58.45
6032;BME280;3044;43.232;27.972;2023-04-25T09:03:38;45115.72;;;-143.84;56.87
6032;BME280;3044;43.232;27.972;2023-04-25T09:06:05;45104.28;;;-143.84;56.50
6032;BME280;3044;43.232;27.972;2023-04-25T09:08:36;45106.19;;;-143.84;55.14
6032;BME280;3044;43.232;27.972;2023-04-25T09:11:06;45096.66;;;-143.84;53.98
6032;BME280;3044;43.232;27.972;2023-04-25T09:13:33;45140.47;;;-143.84;54.70
6032;BME280;3044;43.232;27.972;2023-04-25T09:16:00;45089.06;;;-143.84;56.74
6032;BME280;3044;43.232;27.972;2023-04-25T09:18:29;45127.13;;;-143.84;56.10
6032;BME280;3044;43.232;27.972;2023-04-25T09:21:05;45121.44;;;-143.84;55.19
6032;BME280;3044;43.232;27.972;2023-04-25T09:23:41;45108.09;;;-143.84;56.22
6032;BME280;3044;43.232;27.972;2023-04-25T09:26:08;45110.00;;;-143.84;55.26
6032;BME280;3044;43.232;27.972;2023-04-25T09:28:35;45111.91;;;-143.84;56.00
6032;BME280;3044;43.232;27.972;2023-04-25T09:31:03;45094.78;;;-143.84;56.63
6032;BME280;3044;43.232;27.972;2023-04-25T09:33:32;45096.66;;;-143.84;57.35
6032;BME280;3044;43.232;27.972;2023-04-25T09:36:05;45100.47;;;-143.84;56.40
6032;BME280;3044;43.232;27.972;2023-04-25T09:38:39;45121.44;;;-143.84;56.44
6032;BME280;3044;43.232;27.972;2023-04-25T09:41:08;45106.19;;;-143.84;56.49
6032;BME280;3044;43.232;27.972;2023-04-25T09:43:36;45089.06;;;-143.84;57.02
6032;BME280;3044;43.232;27.972;2023-04-25T09:46:08;45100.47;;;-143.84;58.73
6032;BME280;3044;43.232;27.972;2023-04-25T09:48:37;45090.97;;;-143.84;57.60
6032;BME280;3044;43.232;27.972;2023-04-25T09:51:08;45106.19;;;-143.84;56.35
6032;BME280;3044;43.232;27.972;2023-04-25T09:53:37;45085.25;;;-143.84;57.04
6032;BME280;3044;43.232;27.972;2023-04-25T09:56:05;45106.19;;;-143.84;57.82
6032;BME280;3044;43.232;27.972;2023-04-25T09:58:35;45094.78;;;-143.84;58.39
6032;BME280;3044;43.232;27.972;2023-04-25T10:01:04;45094.78;;;-143.84;58.18
6032;BME280;3044;43.232;27.972;2023-04-25T10:03:33;45117.63;;;-143.84;57.97
6032;BME280;3044;43.232;27.972;2023-04-25T10:06:02;45083.34;;;-143.84;59.09
6032;BME280;3044;43.232;27.972;2023-04-25T10:08:32;45073.81;;;-143.84;59.61
6032;BME280;3044;43.232;27.972;2023-04-25T10:11:00;45108.09;;;-143.84;60.86
6032;BME280;3044;43.232;27.972;2023-04-25T10:13:29;45073.81;;;-143.84;57.98
6032;BME280;3044;43.232;27.972;2023-04-25T10:15:59;45110.00;;;-143.84;55.60
6032;BME280;3044;43.232;27.972;2023-04-25T10:18:27;45073.81;;;-143.84;55.83
6032;BME280;3044;43.232;27.972;2023-04-25T10:20:56;45079.53;;;-143.84;55.43
6032;BME280;3044;43.232;27.972;2023-04-25T10:23:26;45092.88;;;-143.84;55.54
6032;BME280;3044;43.232;27.972;2023-04-25T10:25:54;45110.00;;;-143.84;54.96
6032;BME280;3044;43.232;27.972;2023-04-25T10:28:22;45090.97;;;-143.84;52.71
6032;BME280;3044;43.232;27.972;2023-04-25T10:31:00;45085.25;;;-143.84;56.14
6032;BME280;3044;43.232;27.972;2023-04-25T10:33:34;45083.34;;;-143.84;51.74
6032;BME280;3044;43.232;27.972;2023-04-25T10:36:09;45087.16;;;-143.84;53.76
6032;BME280;3044;43.232;27.972;2023-04-25T10:38:37;45064.31;;;-143.84;50.67
6032;BME280;3044;43.232;27.972;2023-04-25T10:41:06;45087.16;;;-143.84;49.00
6032;BME280;3044;43.232;27.972;2023-04-25T10:43:35;45073.81;;;-143.84;48.47
6032;BME280;3044;43.232;27.972;2023-04-25T10:46:13;45070.00;;;-143.84;49.53
6032;BME280;3044;43.232;27.972;2023-04-25T10:48:46;45049.06;;;-143.84;47.87
6032;BME280;3044;43.232;27.972;2023-04-25T10:51:22;45130.94;;;-143.84;48.13
6032;BME280;3044;43.232;27.972;2023-04-25T10:54:00;45073.81;;;-143.84;50.04
6032;BME280;3044;43.232;27.972;2023-04-25T10:56:28;45089.06;;;-143.84;51.64
6032;BME280;3044;43.232;27.972;2023-04-25T10:59:06;45070.00;;;-143.84;48.29
6032;BME280;3044;43.232;27.972;2023-04-25T11:01:38;45056.69;;;-143.84;47.23
6032;BME280;3044;43.232;27.972;2023-04-25T11:04:06;45056.69;;;-143.84;46.89
6032;BME280;3044;43.232;27.972;2023-04-25T11:06:57;45077.63;;;-143.84;48.25
6032;BME280;3044;43.232;27.972;2023-04-25T11:09:25;45064.31;;;-143.84;50.11
6032;BME280;3044;43.232;27.972;2023-04-25T11:11:54;45075.72;;;-143.84;51.51
6032;BME280;3044;43.232;27.972;2023-04-25T11:14:22;45073.81;;;-143.84;49.27
6032;BME280;3044;43.232;27.972;2023-04-25T11:16:54;45077.63;;;-143.84;49.34
6032;BME280;3044;43.232;27.972;2023-04-25T11:19:21;45077.63;;;-143.84;51.47
6032;BME280;3044;43.232;27.972;2023-04-25T11:21:49;45060.50;;;-143.84;53.99
6032;BME280;3044;43.232;27.972;2023-04-25T11:24:16;45092.88;;;-143.84;52.90
6032;BME280;3044;43.232;27.972;2023-04-25T11:26:47;45075.72;;;-143.84;50.91
6032;BME280;3044;43.232;27.972;2023-04-25T11:29:14;45075.72;;;-143.84;50.07
6032;BME280;3044;43.232;27.972;2023-04-25T11:31:43;45113.81;;;-143.84;53.24
6032;BME280;3044;43.232;27.972;2023-04-25T11:34:17;45081.44;;;-143.84;53.02
6032;BME280;3044;43.232;27.972;2023-04-25T11:36:44;45068.13;;;-143.84;53.49
6032;BME280;3044;43.232;27.972;2023-04-25T11:39:11;45090.97;;;-143.84;53.81
6032;BME280;3044;43.232;27.972;2023-04-25T11:41:39;45073.81;;;-143.84;53.09
6032;BME280;3044;43.232;27.972;2023-04-25T11:44:06;45100.47;;;-143.84;53.71
6032;BME280;3044;43.232;27.972;2023-04-25T11:46:34;45106.19;;;-143.84;52.24
6032;BME280;3044;43.232;27.972;2023-04-25T11:49:01;45094.78;;;-143.84;48.75
6032;BME280;3044;43.232;27.972;2023-04-25T11:51:30;45079.53;;;-143.84;47.71
6032;BME280;3044;43.232;27.972;2023-04-25T11:53:57;45098.56;;;-143.84;50.24
6032;BME280;3044;43.232;27.972;2023-04-25T11:56:24;45081.44;;;-143.84;49.79
6032;BME280;3044;43.232;27.972;2023-04-25T11:58:59;45075.72;;;-143.84;50.25
6032;BME280;3044;43.232;27.972;2023-04-25T12:01:29;45073.81;;;-143.84;44.33
6032;BME280;3044;43.232;27.972;2023-04-25T12:03:58;45117.63;;;-143.84;45.49
6032;BME280;3044;43.232;27.972;2023-04-25T12:06:29;45081.44;;;-143.84;44.50
6032;BME280;3044;43.232;27.972;2023-04-25T12:09:03;45090.97;;;-143.84;46.98
6032;BME280;3044;43.232;27.972;2023-04-25T12:11:31;45052.88;;;-143.84;45.25
6032;BME280;3044;43.232;27.972;2023-04-25T12:14:02;45090.97;;;-143.84;45.43
6032;BME280;3044;43.232;27.972;2023-04-25T12:16:40;45064.31;;;-143.84;47.22
6032;BME280;3044;43.232;27.972;2023-04-25T12:19:07;45098.56;;;-143.84;46.61
6032;BME280;3044;43.232;27.972;2023-04-25T12:21:36;45083.34;;;-143.84;45.46
6032;BME280;3044;43.232;27.972;2023-04-25T12:24:21;45079.53;;;-143.84;45.32
6032;BME280;3044;43.232;27.972;2023-04-25T12:26:52;45070.00;;;-143.84;46.47
6032;BME280;3044;43.232;27.972;2023-04-25T12:29:20;45075.72;;;-143.84;45.54
6032;BME280;3044;43.232;27.972;2023-04-25T12:31:48;45100.47;;;-143.84;46.96
6032;BME280;3044;43.232;27.972;2023-04-25T12:34:15;45068.13;;;-143.84;45.86
6032;BME280;3044;43.232;27.972;2023-04-25T12:36:44;45092.88;;;-143.84;46.51
6032;BME280;3044;43.232;27.972;2023-04-25T12:39:15;45087.16;;;-143.84;47.94
6032;BME280;3044;43.232;27.972;2023-04-25T12:41:43;45054.78;;;-143.84;49.05
6032;BME280;3044;43.232;27.972;2023-04-25T12:44:11;45079.53;;;-143.84;48.31
6032;BME280;3044;43.232;27.972;2023-04-25T12:46:38;45077.63;;;-143.84;50.00
6032;BME280;3044;43.232;27.972;2023-04-25T12:49:06;45098.56;;;-143.84;51.36
6032;BME280;3044;43.232;27.972;2023-04-25T12:51:34;45100.47;;;-143.84;54.04
6032;BME280;3044;43.232;27.972;2023-04-25T12:54:04;45094.78;;;-143.84;57.88
6032;BME280;3044;43.232;27.972;2023-04-25T12:56:31;45090.97;;;-143.84;60.98